Time;durP1;ratioP1;P1;durP2;ratioP2;P2;SDS_P1;SDS_P2;PMS_P1;PMS_P2;Temp;Humidity;BMP_temperature;BMP_pressure;BME280_temperature;BME280_humidity;BME280_pressure;Samples;Min_cycle;Max_cycle;Signal;HPM_P1;HPM_P2
2024/02/17 00:00:24;;;;;;;2.47;2.00;;;11.50;99.90;;;;;;5011373;28;20210;-78
2024/02/17 00:02:51;;;;;;;3.25;2.95;;;11.40;99.90;;;;;;5010732;28;20241;-75
2024/02/17 00:05:18;;;;;;;3.20;2.90;;;11.40;99.90;;;;;;5011226;28;20210;-75
2024/02/17 00:07:45;;;;;;;3.60;2.80;;;11.40;99.90;;;;;;5010890;28;20257;-76
2024/02/17 00:10:11;;;;;;;3.83;2.70;;;11.40;99.90;;;;;;5010789;28;20213;-75
2024/02/17 00:12:38;;;;;;;2.63;2.25;;;11.40;99.90;;;;;;5010989;28;20686;-75
2024/02/17 00:15:06;;;;;;;2.67;2.45;;;11.40;99.90;;;;;;5010611;28;20214;-76
2024/02/17 00:17:35;;;;;;;6.93;2.72;;;11.40;99.90;;;;;;5011842;28;20621;-76
2024/02/17 00:20:01;;;;;;;2.97;2.50;;;11.40;99.90;;;;;;5010297;28;20672;-75
2024/02/17 00:22:28;;;;;;;3.28;2.65;;;11.40;99.90;;;;;;5011072;28;20237;-75
2024/02/17 00:24:55;;;;;;;2.67;2.00;;;11.40;99.90;;;;;;5010753;28;20213;-75
2024/02/17 00:27:21;;;;;;;3.20;2.60;;;11.40;99.90;;;;;;5011264;28;20206;-75
2024/02/17 00:29:48;;;;;;;2.65;2.00;;;11.30;99.90;;;;;;5010785;28;20325;-75
2024/02/17 00:32:15;;;;;;;3.20;2.90;;;11.30;99.90;;;;;;5003477;28;20214;-76
2024/02/17 00:34:43;;;;;;;3.08;2.53;;;11.30;99.90;;;;;;5010782;28;20226;-75
2024/02/17 00:37:10;;;;;;;3.80;2.53;;;11.30;99.90;;;;;;5010701;28;20604;-75
2024/02/17 00:39:36;;;;;;;6.43;2.72;;;11.40;99.90;;;;;;5010729;28;20202;-76
2024/02/17 00:42:03;;;;;;;3.28;2.72;;;11.40;99.90;;;;;;5010409;28;20214;-76
2024/02/17 00:44:30;;;;;;;4.22;2.80;;;11.40;99.90;;;;;;5010396;28;20576;-76
2024/02/17 00:46:57;;;;;;;3.08;2.50;;;11.40;99.90;;;;;;5010562;28;20210;-76
2024/02/17 00:49:23;;;;;;;2.90;2.60;;;11.40;99.90;;;;;;5010865;28;20202;-75
2024/02/17 00:51:52;;;;;;;3.53;2.72;;;11.40;99.90;;;;;;5010593;28;20198;-75
2024/02/17 00:54:19;;;;;;;6.07;2.63;;;11.40;99.90;;;;;;5010482;28;20226;-75
2024/02/17 00:56:45;;;;;;;3.70;2.70;;;11.40;99.90;;;;;;5010547;28;20229;-76
2024/02/17 00:59:12;;;;;;;3.47;2.90;;;11.40;99.90;;;;;;5010057;28;20203;-75
2024/02/17 01:01:39;;;;;;;4.05;2.40;;;11.40;99.90;;;;;;5010547;28;20679;-75
2024/02/17 01:04:06;;;;;;;3.83;2.90;;;11.40;99.90;;;;;;5009586;28;20253;-75
2024/02/17 01:06:32;;;;;;;2.58;2.38;;;11.40;99.90;;;;;;5023935;28;20199;-77
2024/02/17 01:09:00;;;;;;;3.22;2.95;;;11.40;99.90;;;;;;5027590;28;20240;-75
2024/02/17 01:11:27;;;;;;;2.70;2.50;;;11.40;99.90;;;;;;5028645;28;20206;-75
2024/02/17 01:13:54;;;;;;;3.40;2.60;;;11.40;99.90;;;;;;5029216;28;20214;-75
2024/02/17 01:16:21;;;;;;;4.43;2.58;;;11.40;99.90;;;;;;5029687;28;20625;-75
2024/02/17 01:18:47;;;;;;;3.03;2.08;;;11.30;99.90;;;;;;5014049;28;20202;-76
2024/02/17 01:21:14;;;;;;;2.65;2.30;;;11.40;99.90;;;;;;5029931;28;20202;-76
2024/02/17 01:23:41;;;;;;;3.20;2.50;;;11.40;99.90;;;;;;5032880;28;20602;-75
2024/02/17 01:26:09;;;;;;;2.50;2.28;;;11.30;99.90;;;;;;5033279;28;20463;-75
2024/02/17 01:28:36;;;;;;;3.00;2.60;;;11.30;99.90;;;;;;5033809;28;20217;-75
2024/02/17 01:31:02;;;;;;;2.70;2.15;;;11.30;99.90;;;;;;5033674;28;20216;-75
2024/02/17 01:33:29;;;;;;;2.95;2.40;;;11.30;99.90;;;;;;5023064;28;20234;-75
2024/02/17 01:35:56;;;;;;;2.58;2.33;;;11.30;99.90;;;;;;5028616;28;20209;-76
2024/02/17 01:38:22;;;;;;;4.40;2.28;;;11.30;99.90;;;;;;5033712;28;20206;-76
2024/02/17 01:40:50;;;;;;;4.10;2.50;;;11.30;99.90;;;;;;5034039;28;20206;-76
2024/02/17 01:43:18;;;;;;;2.80;2.13;;;11.30;99.90;;;;;;5006063;28;20257;-76
2024/02/17 01:45:46;;;;;;;3.00;2.60;;;11.20;99.90;;;;;;5014037;28;20221;-76
2024/02/17 01:48:14;;;;;;;2.63;2.10;;;11.30;99.90;;;;;;5013923;28;20651;-76
2024/02/17 01:50:41;;;;;;;2.20;2.00;;;11.30;99.90;;;;;;5014127;28;20210;-76
2024/02/17 01:53:08;;;;;;;3.10;2.03;;;11.20;99.90;;;;;;5013667;28;20234;-76
2024/02/17 01:55:36;;;;;;;7.38;2.55;;;11.30;99.90;;;;;;5013974;28;20585;-76
2024/02/17 01:58:03;;;;;;;4.15;2.55;;;11.30;99.90;;;;;;5013273;28;20211;-76
2024/02/17 02:00:32;;;;;;;4.88;2.80;;;11.20;99.90;;;;;;5013819;28;20203;-76
2024/02/17 02:02:59;;;;;;;2.33;2.13;;;11.30;99.90;;;;;;5013263;28;20704;-76
2024/02/17 02:05:26;;;;;;;2.60;2.20;;;11.30;99.90;;;;;;5013858;28;20202;-76
2024/02/17 02:07:53;;;;;;;3.83;3.22;;;11.30;99.90;;;;;;5013345;28;20213;-75
2024/02/17 02:10:19;;;;;;;2.58;2.28;;;11.30;99.90;;;;;;5005565;28;20206;-76
2024/02/17 02:12:46;;;;;;;2.40;2.15;;;11.30;99.90;;;;;;5013538;28;20219;-76
2024/02/17 02:15:13;;;;;;;2.85;2.65;;;11.30;99.90;;;;;;5013218;28;20207;-75
2024/02/17 02:17:42;;;;;;;3.15;2.90;;;11.30;99.90;;;;;;5013590;28;20206;-76
2024/02/17 02:20:12;;;;;;;3.90;2.78;;;11.30;99.90;;;;;;5012760;28;20211;-75
2024/02/17 02:22:41;;;;;;;2.78;2.13;;;11.30;99.90;;;;;;5013296;28;20206;-75
2024/02/17 02:25:20;;;;;;;3.45;2.47;;;11.30;99.90;;;;;;5013085;28;20214;-76
2024/02/17 02:27:48;;;;;;;2.78;2.47;;;11.40;99.90;;;;;;5013222;28;20214;-76
2024/02/17 02:30:15;;;;;;;3.00;2.50;;;11.30;99.90;;;;;;5012919;28;20211;-76
2024/02/17 02:32:41;;;;;;;2.80;2.28;;;11.30;99.90;;;;;;5013328;28;20673;-76
2024/02/17 02:35:08;;;;;;;2.75;2.38;;;11.30;99.90;;;;;;5012200;28;20211;-76
2024/02/17 02:37:35;;;;;;;3.00;2.45;;;11.30;99.90;;;;;;5013041;28;20210;-76
2024/02/17 02:40:02;;;;;;;2.90;2.17;;;11.30;99.90;;;;;;5012810;28;20237;-76
2024/02/17 02:42:28;;;;;;;2.40;2.20;;;11.30;99.90;;;;;;5012888;28;20211;-76
2024/02/17 02:44:56;;;;;;;3.30;1.80;;;11.20;99.90;;;;;;5012928;28;20253;-75
2024/02/17 02:47:23;;;;;;;2.28;2.08;;;11.10;99.90;;;;;;5005730;28;20233;-76
2024/02/17 02:49:51;;;;;;;2.15;1.95;;;11.10;99.90;;;;;;5012812;28;20680;-76
2024/02/17 02:52:17;;;;;;;3.03;2.15;;;11.00;99.90;;;;;;5012608;28;20213;-76
2024/02/17 02:54:44;;;;;;;2.80;2.28;;;11.00;99.90;;;;;;5012709;28;20715;-76
2024/02/17 02:57:11;;;;;;;3.75;3.35;;;11.00;99.90;;;;;;5011504;28;20214;-76
2024/02/17 02:59:37;;;;;;;2.50;2.30;;;10.90;99.90;;;;;;5012586;28;20210;-76
2024/02/17 03:02:06;;;;;;;3.35;2.85;;;10.80;99.90;;;;;;5012129;28;20722;-76
2024/02/17 03:04:32;;;;;;;3.35;2.30;;;10.80;99.90;;;;;;5012605;28;20596;-76
2024/02/17 03:06:59;;;;;;;3.33;2.53;;;10.70;99.90;;;;;;5012587;28;20589;-76
2024/02/17 03:09:26;;;;;;;5.57;3.33;;;10.60;99.90;;;;;;5012350;28;20226;-76
2024/02/17 03:11:53;;;;;;;3.33;2.92;;;10.60;99.90;;;;;;5012171;28;20202;-76
2024/02/17 03:14:20;;;;;;;4.93;3.38;;;10.60;99.90;;;;;;5012163;28;20629;-76
2024/02/17 03:16:47;;;;;;;4.18;3.78;;;10.60;99.90;;;;;;5012462;28;20218;-76
2024/02/17 03:19:15;;;;;;;3.40;3.10;;;10.60;99.90;;;;;;5011950;28;20209;-76
2024/02/17 03:21:42;;;;;;;4.10;3.55;;;10.50;99.90;;;;;;5012526;28;20198;-76
2024/02/17 03:24:10;;;;;;;4.82;3.72;;;10.50;99.90;;;;;;5011881;28;20237;-76
2024/02/17 03:26:36;;;;;;;4.70;3.88;;;10.50;99.90;;;;;;5012469;28;20293;-76
2024/02/17 03:29:03;;;;;;;6.22;3.88;;;10.50;99.90;;;;;;5011912;28;20220;-76
2024/02/17 03:31:30;;;;;;;6.97;3.92;;;10.50;99.90;;;;;;5012097;28;20221;-76
2024/02/17 03:33:58;;;;;;;6.35;4.50;;;10.40;99.90;;;;;;5005320;28;20225;-76
2024/02/17 03:36:26;;;;;;;5.55;4.18;;;10.40;99.90;;;;;;5011908;28;20239;-76
2024/02/17 03:38:53;;;;;;;7.13;3.78;;;10.40;99.90;;;;;;5010372;28;20609;-76
2024/02/17 03:41:20;;;;;;;6.30;4.50;;;10.40;99.90;;;;;;5011839;28;20220;-76
2024/02/17 03:43:46;;;;;;;7.05;4.35;;;10.30;99.90;;;;;;5010336;28;20234;-77
2024/02/17 03:46:13;;;;;;;5.20;3.70;;;10.30;99.90;;;;;;5011608;28;20683;-76
2024/02/17 03:48:40;;;;;;;9.35;5.10;;;10.30;99.90;;;;;;5011848;28;20201;-76
2024/02/17 03:51:07;;;;;;;6.07;4.00;;;10.30;99.90;;;;;;5011609;28;20210;-76
2024/02/17 03:53:35;;;;;;;9.00;4.78;;;10.30;99.90;;;;;;5011619;28;20733;-76
2024/02/17 03:56:02;;;;;;;6.35;4.55;;;10.30;99.90;;;;;;5010080;28;20206;-76
2024/02/17 03:58:29;;;;;;;6.40;4.75;;;10.30;99.90;;;;;;5005608;28;20589;-76
2024/02/17 04:00:56;;;;;;;7.05;4.60;;;10.30;99.90;;;;;;5011576;28;20206;-76
2024/02/17 04:03:23;;;;;;;7.63;4.95;;;10.30;99.90;;;;;;5011177;28;20717;-76
2024/02/17 04:05:49;;;;;;;6.28;4.45;;;10.30;99.90;;;;;;5011615;28;20206;-76
2024/02/17 04:08:16;;;;;;;6.65;4.57;;;10.30;99.90;;;;;;5009722;28;20237;-76
2024/02/17 04:10:44;;;;;;;8.13;5.45;;;10.30;99.90;;;;;;5009812;28;20217;-76
2024/02/17 04:13:11;;;;;;;9.00;5.70;;;10.30;99.90;;;;;;5011172;28;20233;-76
2024/02/17 04:15:38;;;;;;;6.40;4.88;;;10.20;99.90;;;;;;5011523;28;20209;-76
2024/02/17 04:18:08;;;;;;;8.30;5.45;;;10.30;99.90;;;;;;5011188;28;20586;-76
2024/02/17 04:20:37;;;;;;;8.43;5.05;;;10.30;99.90;;;;;;5011486;28;20203;-76
2024/02/17 04:23:03;;;;;;;7.40;5.20;;;10.30;99.90;;;;;;5011117;28;20233;-76
2024/02/17 04:25:30;;;;;;;8.38;4.88;;;10.20;99.90;;;;;;5005044;28;20230;-76
2024/02/17 04:27:58;;;;;;;6.78;4.30;;;10.30;99.90;;;;;;5010889;28;20213;-76
2024/02/17 04:30:25;;;;;;;6.22;5.03;;;10.30;99.90;;;;;;5010960;28;20209;-76
2024/02/17 04:32:52;;;;;;;5.40;4.22;;;10.30;99.90;;;;;;5011048;28;20233;-76
2024/02/17 04:35:18;;;;;;;8.23;5.35;;;10.30;99.90;;;;;;5010973;28;20213;-76
2024/02/17 04:37:45;;;;;;;5.53;3.97;;;10.30;99.90;;;;;;5010925;28;20214;-76
2024/02/17 04:40:13;;;;;;;6.30;5.05;;;10.30;99.90;;;;;;5010831;28;20210;-76
2024/02/17 04:42:40;;;;;;;8.88;4.90;;;10.20;99.90;;;;;;5011060;28;20209;-76
2024/02/17 04:45:09;;;;;;;5.85;4.20;;;10.20;99.90;;;;;;5011101;28;20236;-76
2024/02/17 04:47:35;;;;;;;6.47;4.13;;;10.20;99.90;;;;;;5005759;28;20293;-76
2024/02/17 04:50:02;;;;;;;4.68;4.18;;;10.20;99.90;;;;;;5010911;28;20678;-76
2024/02/17 04:52:29;;;;;;;5.25;3.90;;;10.20;99.90;;;;;;5010622;28;20690;-76
2024/02/17 04:54:56;;;;;;;3.67;2.72;;;10.20;99.90;;;;;;5010976;28;20212;-76
2024/02/17 04:57:22;;;;;;;4.63;3.67;;;10.20;99.90;;;;;;5011739;28;20210;-77
2024/02/17 04:59:49;;;;;;;7.22;4.68;;;10.20;99.90;;;;;;5014719;28;20682;-77
2024/02/17 05:02:17;;;;;;;5.38;4.22;;;10.10;99.90;;;;;;5012085;28;20585;-77
2024/02/17 05:04:44;;;;;;;4.50;3.78;;;10.00;99.90;;;;;;5014661;28;20236;-77
2024/02/17 05:07:12;;;;;;;5.82;4.05;;;10.00;99.90;;;;;;5014417;28;20854;-77
2024/02/17 05:09:38;;;;;;;5.85;4.40;;;10.00;99.90;;;;;;5014448;28;20210;-76
2024/02/17 05:12:05;;;;;;;5.95;4.55;;;10.00;99.90;;;;;;5014436;28;20207;-77
2024/02/17 05:14:36;;;;;;;4.20;3.72;;;10.00;99.90;;;;;;5014237;28;20226;-76
2024/02/17 05:17:03;;;;;;;7.57;4.32;;;10.00;99.90;;;;;;5011802;28;20202;-76
2024/02/17 05:19:31;;;;;;;5.30;3.80;;;10.00;99.90;;;;;;5014164;28;20210;-77
2024/02/17 05:21:59;;;;;;;7.07;4.63;;;10.00;99.90;;;;;;5014314;28;20210;-76
2024/02/17 05:24:25;;;;;;;7.20;4.85;;;10.00;99.90;;;;;;5014080;28;20315;-76
2024/02/17 05:26:52;;;;;;;5.72;4.13;;;10.00;99.90;;;;;;5014262;28;20203;-77
2024/02/17 05:29:19;;;;;;;5.78;4.20;;;10.00;99.90;;;;;;5013945;28;20213;-77
2024/02/17 05:31:46;;;;;;;7.30;4.85;;;10.00;99.90;;;;;;5014416;28;20205;-78
2024/02/17 05:34:13;;;;;;;8.93;4.90;;;10.00;99.90;;;;;;5014133;28;20265;-76
2024/02/17 05:36:41;;;;;;;9.02;6.13;;;10.00;99.90;;;;;;5014125;28;20237;-76
2024/02/17 05:39:09;;;;;;;10.02;5.75;;;9.90;99.90;;;;;;5013900;28;20244;-76
2024/02/17 05:41:35;;;;;;;7.60;5.32;;;9.90;99.90;;;;;;5013820;28;20241;-76
2024/02/17 05:44:02;;;;;;;7.75;5.00;;;10.00;99.90;;;;;;5013757;28;20238;-76
2024/02/17 05:46:29;;;;;;;8.90;5.30;;;10.00;99.90;;;;;;5013816;28;20220;-77
2024/02/17 05:48:55;;;;;;;9.73;5.78;;;9.90;99.90;;;;;;5013665;28;20212;-76
2024/02/17 05:51:22;;;;;;;6.80;4.68;;;9.90;99.90;;;;;;5013764;28;20205;-76
2024/02/17 05:53:50;;;;;;;7.95;5.82;;;9.90;99.90;;;;;;5013623;28;20793;-77
2024/02/17 05:56:17;;;;;;;7.20;5.40;;;10.00;99.90;;;;;;5010739;28;20206;-76
2024/02/17 05:58:44;;;;;;;7.00;5.18;;;9.90;99.90;;;;;;5013668;28;20559;-77
2024/02/17 06:01:11;;;;;;;8.25;5.82;;;9.90;99.90;;;;;;5013625;28;20252;-76
2024/02/17 06:03:37;;;;;;;8.10;6.00;;;9.80;99.90;;;;;;5013285;28;20237;-76
2024/02/17 06:06:05;;;;;;;10.20;6.50;;;9.80;99.90;;;;;;5013686;28;20213;-76
2024/02/17 06:08:31;;;;;;;9.88;6.55;;;9.80;99.90;;;;;;5012628;28;20210;-78
2024/02/17 06:10:59;;;;;;;7.65;5.63;;;9.80;99.90;;;;;;5013316;28;20235;-76
2024/02/17 06:13:28;;;;;;;6.97;5.22;;;9.80;99.90;;;;;;5010873;28;20729;-77
2024/02/17 06:15:55;;;;;;;9.60;5.78;;;9.80;99.90;;;;;;5011121;28;20233;-76
2024/02/17 06:21:13;;;;;;;8.55;5.60;;;9.80;99.90;;;;;;5013381;28;20305;-76
2024/02/17 06:23:41;;;;;;;9.57;6.20;;;9.80;99.90;;;;;;5012969;28;20258;-76
2024/02/17 06:26:22;;;;;;;10.10;6.65;;;9.80;99.90;;;;;;5013377;28;20718;-75
2024/02/17 06:28:49;;;;;;;8.60;5.55;;;9.80;99.90;;;;;;5009892;28;20695;-77
2024/02/17 06:31:15;;;;;;;6.63;5.20;;;9.80;99.90;;;;;;5009846;28;20617;-76
2024/02/17 06:33:42;;;;;;;9.82;6.03;;;9.80;99.90;;;;;;5008443;28;20725;-76
2024/02/17 06:36:09;;;;;;;8.73;6.00;;;9.70;99.90;;;;;;5009689;28;20206;-74
2024/02/17 06:38:36;;;;;;;8.13;5.25;;;9.60;99.90;;;;;;5012711;28;20204;-74
2024/02/17 06:41:03;;;;;;;10.63;5.38;;;9.50;99.90;;;;;;5012973;28;20216;-74
2024/02/17 06:43:32;;;;;;;8.25;5.70;;;9.50;99.90;;;;;;5012761;28;20706;-74
2024/02/17 06:45:59;;;;;;;11.13;6.32;;;9.50;99.90;;;;;;5013331;28;20253;-75
2024/02/17 06:48:27;;;;;;;11.23;6.32;;;9.40;99.90;;;;;;5012730;28;20210;-76
2024/02/17 06:50:54;;;;;;;7.43;5.95;;;9.40;99.90;;;;;;5012842;28;20209;-76
2024/02/17 06:53:20;;;;;;;8.30;5.57;;;9.40;99.90;;;;;;5012957;28;20227;-78
2024/02/17 06:55:47;;;;;;;8.90;5.60;;;9.30;99.90;;;;;;5013090;28;20658;-78
2024/02/17 06:58:14;;;;;;;7.55;5.68;;;9.30;99.90;;;;;;5012705;28;20208;-76
2024/02/17 07:00:42;;;;;;;14.63;8.18;;;9.30;99.90;;;;;;5012555;28;20231;-78
2024/02/17 07:03:09;;;;;;;10.80;6.47;;;9.30;99.90;;;;;;5012130;28;20738;-79
2024/02/17 07:05:38;;;;;;;8.38;5.95;;;9.20;99.90;;;;;;5012315;28;20225;-75
2024/02/17 07:08:07;;;;;;;10.25;6.88;;;9.30;99.90;;;;;;5012303;28;20210;-76
2024/02/17 07:10:35;;;;;;;8.70;6.10;;;9.30;99.90;;;;;;5012270;28;20212;-78
2024/02/17 07:13:02;;;;;;;11.10;7.65;;;9.30;99.90;;;;;;5012325;28;20287;-78
2024/02/17 07:15:29;;;;;;;9.77;5.80;;;9.20;99.90;;;;;;5012469;28;20233;-76
2024/02/17 07:18:00;;;;;;;8.50;5.72;;;9.20;99.90;;;;;;5012301;28;20209;-77
2024/02/17 07:20:28;;;;;;;13.30;6.63;;;9.20;99.90;;;;;;5012113;28;20259;-76
2024/02/17 07:22:54;;;;;;;9.93;6.25;;;9.20;99.90;;;;;;5007672;28;20672;-76
2024/02/17 07:25:21;;;;;;;11.48;7.10;;;9.10;99.90;;;;;;5004361;28;20216;-74
2024/02/17 07:27:48;;;;;;;9.25;6.05;;;9.10;99.90;;;;;;5004351;28;20205;-74
2024/02/17 07:30:16;;;;;;;12.23;7.53;;;9.10;99.90;;;;;;5012390;28;20239;-75
2024/02/17 07:32:42;;;;;;;10.30;6.28;;;9.10;99.90;;;;;;5012019;28;20219;-74
2024/02/17 07:35:10;;;;;;;12.23;6.97;;;9.20;99.90;;;;;;5012209;28;20212;-77
2024/02/17 07:37:37;;;;;;;11.35;7.70;;;9.20;99.90;;;;;;5011933;28;20208;-75
2024/02/17 07:40:08;;;;;;;11.20;6.90;;;9.30;99.90;;;;;;5012208;28;20589;-75
2024/02/17 07:42:35;;;;;;;11.07;6.53;;;9.40;99.90;;;;;;5012110;28;20213;-75
2024/02/17 07:45:02;;;;;;;10.27;6.75;;;10.10;99.90;;;;;;5012010;28;20601;-75
2024/02/17 07:47:28;;;;;;;9.18;5.88;;;11.10;99.90;;;;;;5011892;28;20212;-75
2024/02/17 07:49:55;;;;;;;10.15;6.10;;;12.40;99.90;;;;;;5011998;28;20206;-76
2024/02/17 07:52:24;;;;;;;9.82;6.68;;;13.50;99.90;;;;;;5011923;28;20214;-75
2024/02/17 07:54:50;;;;;;;7.40;5.30;;;14.60;99.90;;;;;;5011935;28;20274;-75
2024/02/17 07:57:17;;;;;;;7.20;5.07;;;15.30;99.90;;;;;;5011822;28;20489;-75
2024/02/17 07:59:44;;;;;;;6.93;4.93;;;15.80;99.90;;;;;;5011685;28;20473;-76
2024/02/17 08:02:11;;;;;;;7.40;5.10;;;16.20;99.90;;;;;;5011657;28;20492;-76
2024/02/17 08:04:40;;;;;;;6.23;5.00;;;16.30;99.90;;;;;;5011482;28;21001;-76
2024/02/17 08:07:06;;;;;;;6.00;4.80;;;16.90;99.90;;;;;;5012970;28;20557;-76
2024/02/17 08:09:34;;;;;;;9.47;5.40;;;17.40;99.90;;;;;;5011405;28;20457;-76
2024/02/17 08:12:01;;;;;;;8.90;5.50;;;17.90;99.90;;;;;;5011708;28;20492;-75
2024/02/17 08:14:28;;;;;;;5.97;4.77;;;17.90;99.90;;;;;;5003513;28;20489;-75
2024/02/17 08:16:54;;;;;;;6.50;4.90;;;17.10;99.90;;;;;;5011479;28;20465;-75
2024/02/17 08:19:21;;;;;;;5.57;4.30;;;15.90;99.90;;;;;;5006126;28;20496;-74
2024/02/17 08:21:48;;;;;;;7.40;4.87;;;15.30;99.90;;;;;;5010926;28;20467;-75
2024/02/17 08:24:15;;;;;;;7.63;5.80;;;14.60;99.90;;;;;;5010927;28;21053;-75
2024/02/17 08:26:43;;;;;;;6.67;4.77;;;14.20;99.90;;;;;;5011052;28;20493;-74
2024/02/17 08:29:10;;;;;;;7.20;5.63;;;14.40;99.90;;;;;;5010945;28;20852;-75
2024/02/17 08:31:37;;;;;;;6.90;5.80;;;14.80;99.90;;;;;;5010624;28;20552;-75
2024/02/17 08:34:03;;;;;;;7.27;5.77;;;14.90;99.90;;;;;;5011041;28;20485;-75
2024/02/17 08:36:30;;;;;;;7.27;5.67;;;14.60;99.90;;;;;;5010875;28;20465;-74
2024/02/17 08:38:57;;;;;;;7.20;5.50;;;14.40;99.90;;;;;;5010564;28;20473;-75
2024/02/17 08:41:24;;;;;;;8.30;6.20;;;14.00;99.90;;;;;;5011134;28;20958;-75
2024/02/17 08:43:51;;;;;;;7.77;5.50;;;13.70;99.90;;;;;;5010474;28;20485;-74
2024/02/17 08:46:18;;;;;;;8.97;6.27;;;13.20;99.90;;;;;;5011147;28;20919;-75
2024/02/17 08:48:44;;;;;;;9.73;6.73;;;12.70;99.90;;;;;;5010316;28;20548;-74
2024/02/17 08:51:11;;;;;;;9.27;7.03;;;12.20;99.90;;;;;;5010929;28;20847;-74
2024/02/17 08:53:38;;;;;;;9.98;7.18;;;11.90;99.90;;;;;;5010582;28;20483;-75
2024/02/17 08:56:05;;;;;;;10.68;6.43;;;11.90;99.90;;;;;;5010914;28;20217;-74
2024/02/17 08:58:31;;;;;;;9.07;6.10;;;12.30;99.90;;;;;;5010510;28;20264;-75
2024/02/17 09:00:59;;;;;;;6.50;5.03;;;12.80;99.90;;;;;;5009981;28;20640;-75
2024/02/17 09:03:26;;;;;;;8.10;6.30;;;13.10;99.90;;;;;;5010777;28;20492;-75
2024/02/17 09:05:53;;;;;;;8.77;5.87;;;13.80;99.90;;;;;;5010655;28;20504;-75
2024/02/17 09:08:19;;;;;;;7.07;4.87;;;15.80;99.90;;;;;;5010660;28;20469;-76
2024/02/17 09:10:46;;;;;;;6.33;5.03;;;17.80;99.90;;;;;;5010805;28;20477;-74
2024/02/17 09:13:13;;;;;;;8.67;5.87;;;19.30;99.90;;;;;;5010296;28;20481;-74
2024/02/17 09:15:40;;;;;;;7.60;5.20;;;20.60;99.90;;;;;;5010775;28;20496;-74
2024/02/17 09:18:08;;;;;;;4.47;4.07;;;20.40;99.90;;;;;;5010264;28;20465;-74
2024/02/17 09:20:34;;;;;;;6.17;4.70;;;19.90;99.90;;;;;;5010651;28;20833;-74
2024/02/17 09:23:02;;;;;;;6.23;5.00;;;19.40;99.90;;;;;;5010353;28;20521;-74
2024/02/17 09:25:29;;;;;;;5.03;4.53;;;19.50;99.90;;;;;;5010547;28;21010;-74
2024/02/17 09:27:56;;;;;;;7.53;5.07;;;19.30;99.90;;;;;;5016234;28;20469;-73
2024/02/17 09:30:23;;;;;;;5.87;4.77;;;18.60;99.90;;;;;;5010005;28;20480;-74
2024/02/17 09:32:49;;;;;;;3.30;3.00;;;18.70;99.90;;;;;;5003018;28;20920;-74
2024/02/17 09:35:18;;;;;;;8.40;5.13;;;19.60;99.90;;;;;;5001875;28;20465;-74
2024/02/17 09:37:45;;;;;;;5.53;4.43;;;19.90;99.90;;;;;;5001256;28;20468;-74
2024/02/17 09:40:12;;;;;;;4.50;4.10;;;19.10;99.90;;;;;;5018850;28;20965;-74
2024/02/17 09:42:39;;;;;;;4.73;4.33;;;18.80;99.90;;;;;;5019112;28;20842;-75
2024/02/17 09:45:06;;;;;;;4.70;3.90;;;17.90;99.90;;;;;;5027127;28;20456;-75
2024/02/17 09:47:35;;;;;;;5.40;4.00;;;17.30;99.90;;;;;;5005857;28;20473;-74
2024/02/17 09:50:03;;;;;;;5.03;3.80;;;17.00;99.90;;;;;;5009273;28;20464;-74
2024/02/17 09:52:31;;;;;;;3.83;3.37;;;16.70;99.90;;;;;;5005478;28;21040;-74
2024/02/17 09:54:59;;;;;;;7.10;4.30;;;16.60;99.90;;;;;;5001245;28;20474;-74
2024/02/17 09:57:25;;;;;;;4.70;4.13;;;17.90;99.90;;;;;;5013243;28;20461;-74
2024/02/17 09:59:52;;;;;;;8.50;4.80;;;19.00;99.90;;;;;;5008107;28;20466;-74
2024/02/17 10:02:19;;;;;;;5.43;4.80;;;19.60;99.90;;;;;;5013417;28;20472;-74
2024/02/17 10:04:56;;;;;;;4.50;4.10;;;19.50;99.90;;;;;;5008321;28;20489;-75
2024/02/17 10:07:22;;;;;;;5.10;4.40;;;19.30;99.90;;;;;;5006293;28;20472;-74
2024/02/17 10:09:51;;;;;;;4.73;3.60;;;19.10;99.90;;;;;;5003670;28;20511;-74
2024/02/17 10:12:18;;;;;;;4.87;4.37;;;20.10;99.90;;;;;;5019803;28;20457;-74
2024/02/17 10:14:45;;;;;;;4.23;3.83;;;20.70;99.90;;;;;;5008844;28;21068;-74
2024/02/17 10:17:13;;;;;;;5.63;4.03;;;20.00;99.90;;;;;;5032225;28;20473;-74
2024/02/17 10:19:41;;;;;;;6.30;4.23;;;18.90;99.90;;;;;;5027515;28;20475;-74
2024/02/17 10:22:07;;;;;;;4.87;3.90;;;17.90;99.90;;;;;;5029682;28;20796;-74
2024/02/17 10:24:34;;;;;;;4.70;3.57;;;17.00;99.90;;;;;;5029166;28;20488;-74
2024/02/17 10:27:04;;;;;;;4.30;3.90;;;16.20;99.90;;;;;;5023804;28;20490;-75
2024/02/17 10:29:30;;;;;;;5.10;4.60;;;15.30;99.90;;;;;;5011654;28;20469;-74
2024/02/17 10:31:59;;;;;;;4.83;4.10;;;14.70;99.90;;;;;;5010153;28;20497;-75
2024/02/17 10:34:26;;;;;;;6.03;4.30;;;14.40;99.90;;;;;;5011747;28;21054;-75
2024/02/17 10:36:53;;;;;;;5.23;4.10;;;14.00;99.90;;;;;;5012382;28;20461;-75
2024/02/17 10:39:22;;;;;;;4.40;3.67;;;15.10;99.90;;;;;;5012613;28;20468;-75
2024/02/17 10:41:48;;;;;;;3.80;3.40;;;17.50;99.90;;;;;;5009295;28;20461;-76
2024/02/17 10:44:16;;;;;;;5.83;3.97;;;20.30;99.90;;;;;;5012446;28;20482;-76
2024/02/17 10:46:47;;;;;;;4.20;3.80;;;22.70;99.90;;;;;;5009185;28;20492;-75
2024/02/17 10:49:22;;;;;;;4.00;3.50;;;23.70;99.90;;;;;;5014076;28;20522;-76
2024/02/17 10:51:54;;;;;;;4.00;3.60;;;23.50;99.90;;;;;;5006684;28;20987;-75
2024/02/17 10:54:27;;;;;;;5.07;3.70;;;22.40;99.90;;;;;;5002327;28;20485;-75
2024/02/17 10:56:55;;;;;;;6.40;3.70;;;20.90;99.90;;;;;;5025476;28;20969;-75
2024/02/17 10:59:27;;;;;;;4.37;3.40;;;19.60;99.90;;;;;;5029916;28;20843;-75
2024/02/17 11:01:58;;;;;;;4.07;3.47;;;18.50;99.90;;;;;;5019381;28;20473;-75
2024/02/17 11:04:26;;;;;;;5.30;4.00;;;17.70;99.90;;;;;;5017832;28;20508;-75
2024/02/17 11:06:55;;;;;;;5.80;3.67;;;17.10;99.90;;;;;;5025444;28;20489;-75
2024/02/17 11:09:26;;;;;;;4.87;3.53;;;16.50;99.90;;;;;;5004073;28;20469;-74
2024/02/17 11:11:53;;;;;;;5.70;4.07;;;16.50;99.90;;;;;;5010801;28;20467;-75
2024/02/17 11:14:42;;;;;;;4.60;4.20;;;16.70;99.90;;;;;;5014027;28;20854;-75
2024/02/17 11:17:10;;;;;;;5.87;4.10;;;17.40;99.90;;;;;;5012700;28;20549;-75
2024/02/17 11:19:38;;;;;;;2.93;2.63;;;18.00;99.90;;;;;;5012504;28;20873;-75
2024/02/17 11:22:07;;;;;;;2.60;2.30;;;20.10;99.90;;;;;;5010279;28;20464;-75
2024/02/17 11:24:37;;;;;;;3.63;2.33;;;22.60;99.60;;;;;;5011774;28;20481;-76
2024/02/17 11:27:08;;;;;;;2.57;2.37;;;24.30;98.00;;;;;;5012353;28;20913;-75
2024/02/17 11:29:36;;;;;;;3.03;2.40;;;24.00;97.40;;;;;;5011195;28;20840;-75
2024/02/17 11:32:05;;;;;;;3.77;2.20;;;22.70;97.60;;;;;;5012153;28;20863;-75
2024/02/17 11:34:34;;;;;;;2.57;2.30;;;21.20;97.00;;;;;;5025469;28;20579;-75
2024/02/17 11:37:05;;;;;;;3.73;2.80;;;19.60;97.10;;;;;;5030049;28;20460;-74
2024/02/17 11:39:33;;;;;;;2.53;2.33;;;18.20;99.90;;;;;;5025201;28;20547;-74
2024/02/17 11:42:01;;;;;;;2.73;2.53;;;17.40;99.90;;;;;;5031442;28;20464;-75
2024/02/17 11:44:29;;;;;;;2.73;2.53;;;17.20;99.90;;;;;;5031313;28;20488;-74
2024/02/17 11:46:56;;;;;;;2.30;2.13;;;17.20;99.90;;;;;;5023439;28;21008;-74
2024/02/17 11:49:28;;;;;;;2.20;2.00;;;16.90;99.90;;;;;;5023113;28;20502;-75
2024/02/17 11:51:58;;;;;;;1.83;1.73;;;17.10;99.90;;;;;;5025400;28;20458;-74
2024/02/17 11:54:25;;;;;;;3.10;2.00;;;18.40;99.90;;;;;;5011597;28;20489;-74
2024/02/17 11:56:52;;;;;;;2.30;2.00;;;18.70;99.50;;;;;;5012159;28;21032;-74
2024/02/17 11:59:21;;;;;;;2.90;2.20;;;18.80;99.90;;;;;;5011289;28;20462;-73
2024/02/17 12:01:51;;;;;;;4.57;2.10;;;18.80;99.10;;;;;;5011603;28;20845;-75
2024/02/17 12:05:15;;;;;;;4.20;2.47;;;18.30;99.90;;;;;;5002056;28;20482;-74
2024/02/17 12:07:52;;;;;;;2.10;1.90;;;17.70;99.90;;;;;;4968110;28;20495;-74
2024/02/17 12:10:25;;;;;;;2.43;2.23;;;17.10;99.90;;;;;;4962463;28;20619;-74
2024/02/17 12:16:05;;;;;;;1.80;1.70;;;16.50;99.90;;;;;;5011001;28;20489;-76
2024/02/17 12:18:52;;;;;;;2.33;1.83;;;16.60;99.90;;;;;;5011402;28;20485;-76
2024/02/17 12:21:44;;;;;;;2.10;1.90;;;16.40;99.90;;;;;;4996999;28;20558;-75
2024/02/17 12:24:14;;;;;;;2.47;2.10;;;16.20;99.90;;;;;;5011162;28;20482;-74
2024/02/17 12:26:51;;;;;;;2.70;2.20;;;16.00;99.90;;;;;;5011055;28;20493;-75
2024/02/17 12:29:18;;;;;;;2.43;1.83;;;15.70;99.90;;;;;;5010583;28;20457;-75
2024/02/17 12:31:50;;;;;;;1.90;1.73;;;15.40;99.90;;;;;;5003363;28;20464;-75
2024/02/17 12:35:09;;;;;;;2.13;1.93;;;15.30;99.90;;;;;;5012299;28;20500;-75
2024/02/17 12:40:40;;;;;;;1.83;1.67;;;17.30;99.90;;;;;;5004823;28;20537;-76
2024/02/17 12:43:37;;;;;;;2.60;1.80;;;19.50;99.00;;;;;;5020819;28;20579;-76
2024/02/17 12:46:33;;;;;;;1.60;1.50;;;21.50;97.50;;;;;;5031303;28;20485;-76
2024/02/17 12:49:19;;;;;;;1.57;1.47;;;21.30;96.90;;;;;;5029394;28;20460;-76
2024/02/17 12:51:51;;;;;;;2.47;1.93;;;20.00;97.60;;;;;;5027379;28;20467;-75
2024/02/17 12:54:29;;;;;;;1.50;1.40;;;19.00;98.10;;;;;;5013742;28;21030;-75
2024/02/17 12:57:14;;;;;;;3.93;1.93;;;17.90;99.20;;;;;;5012509;28;20461;-75
2024/02/17 12:59:51;;;;;;;1.70;1.60;;;17.20;99.90;;;;;;5013298;28;20840;-77
2024/02/17 13:02:18;;;;;;;3.53;2.00;;;16.50;99.90;;;;;;5003411;28;20489;-77